Time;durP1;ratioP1;P1;durP2;ratioP2;P2;SDS_P1;SDS_P2;PMS_P1;PMS_P2;Temp;Humidity;BMP_temperature;BMP_pressure;BME280_temperature;BME280_humidity;BME280_pressure;Samples;Min_cycle;Max_cycle;Signal;HPM_P1;HPM_P2
2023/01/28 00:00:55;;;;;;;;;3.20;3.00;;;;;2.86;85.02;101009.75;5116867;28;8835;-61
2023/01/28 00:03:23;;;;;;;;;3.80;3.20;;;;;2.84;85.07;101016.84;5116110;28;8910;-61
2023/01/28 00:05:53;;;;;;;;;5.60;4.80;;;;;2.84;85.48;101015.97;5116830;28;8820;-61
2023/01/28 00:08:20;;;;;;;;;3.20;3.20;;;;;2.82;85.36;101017.78;5116790;28;8856;-61
2023/01/28 00:10:48;;;;;;;;;5.20;5.00;;;;;2.81;85.16;101022.19;5117069;28;8950;-61
2023/01/28 00:13:16;;;;;;;;;2.20;1.80;;;;;2.79;85.04;101018.75;5116979;28;8950;-60
2023/01/28 00:15:44;;;;;;;;;2.60;1.40;;;;;2.79;85.24;101024.00;5116712;28;8892;-61
2023/01/28 00:18:12;;;;;;;;;3.40;3.40;;;;;2.78;84.72;101027.56;5117063;28;8839;-60
2023/01/28 00:20:40;;;;;;;;;1.00;1.00;;;;;2.77;85.47;101017.94;5116865;28;8848;-60
2023/01/28 00:23:08;;;;;;;;;4.40;4.40;;;;;2.78;85.02;101016.16;5124870;27;9450;-61
2023/01/28 00:25:35;;;;;;;;;3.00;1.40;;;;;2.77;85.08;101015.31;5137682;27;8829;-61
2023/01/28 00:28:03;;;;;;;;;2.60;1.80;;;;;2.75;84.87;101017.13;5125285;27;9489;-61
2023/01/28 00:30:31;;;;;;;;;4.00;3.40;;;;;2.73;84.97;101018.94;5116732;28;8944;-61
2023/01/28 00:32:59;;;;;;;;;3.60;3.40;;;;;2.70;85.60;101019.03;5115778;28;8832;-60
2023/01/28 00:35:28;;;;;;;;;0.40;0.40;;;;;2.70;85.59;101019.03;5116638;28;8885;-61
2023/01/28 00:37:56;;;;;;;;;3.00;3.00;;;;;2.71;85.89;101017.25;5116549;28;9517;-59
2023/01/28 00:40:26;;;;;;;;;4.00;4.00;;;;;2.70;85.46;101008.53;5116369;28;8911;-60
2023/01/28 00:42:53;;;;;;;;;6.00;3.00;;;;;2.70;85.31;101013.78;5116306;28;8904;-60
2023/01/28 00:45:21;;;;;;;;;3.60;3.20;;;;;2.71;85.26;101014.63;5116608;28;8838;-58
2023/01/28 00:47:49;;;;;;;;;3.80;3.80;;;;;2.70;85.42;101018.16;5115971;28;8824;-61
2023/01/28 00:50:17;;;;;;;;;3.00;2.20;;;;;2.67;85.55;101016.50;5115826;28;8848;-60
2023/01/28 00:52:44;;;;;;;;;5.60;4.40;;;;;2.66;85.34;101014.75;5121031;27;8824;-61
2023/01/28 00:55:13;;;;;;;;;4.00;3.40;;;;;2.68;85.38;101020.84;5136762;27;8902;-60
2023/01/28 00:57:41;;;;;;;;;3.00;3.00;;;;;2.67;85.33;101015.63;5128763;27;8811;-61
2023/01/28 01:00:08;;;;;;;;;1.40;1.40;;;;;2.66;85.58;101022.66;5115374;28;8885;-58
2023/01/28 01:02:37;;;;;;;;;4.20;3.60;;;;;2.66;85.62;101022.66;5116160;28;8948;-61
2023/01/28 01:05:08;;;;;;;;;0.60;0.60;;;;;2.64;85.33;101027.09;5115844;28;8835;-60
2023/01/28 01:07:41;;;;;;;;;3.60;3.20;;;;;2.65;85.51;101030.59;5131776;27;8840;-60
2023/01/28 01:10:09;;;;;;;;;3.20;1.40;;;;;2.64;85.69;101032.38;5136617;27;8834;-60
2023/01/28 01:12:36;;;;;;;;;6.20;4.00;;;;;2.64;85.45;101031.53;5136173;27;8837;-61
2023/01/28 01:15:07;;;;;;;;;3.40;3.00;;;;;2.64;84.78;101029.72;5135299;27;8818;-59
2023/01/28 01:17:36;;;;;;;;;1.40;1.40;;;;;2.63;85.27;101033.28;5136574;27;9538;-59
2023/01/28 01:20:05;;;;;;;;;4.00;3.00;;;;;2.64;85.43;101032.38;5136123;27;8902;-58
2023/01/28 01:22:32;;;;;;;;;6.00;4.00;;;;;2.63;84.91;101021.88;5136402;27;8858;-61
2023/01/28 01:25:00;;;;;;;;;6.00;3.60;;;;;2.63;84.83;101017.50;5136260;27;8856;-61
2023/01/28 01:27:28;;;;;;;;;2.60;1.80;;;;;2.65;85.40;101020.09;5130644;27;8844;-61
2023/01/28 01:29:56;;;;;;;;;1.00;1.00;;;;;2.63;85.15;101022.75;5115178;28;8831;-61
2023/01/28 01:32:24;;;;;;;;;4.40;3.80;;;;;2.63;84.95;101033.28;5115931;28;8850;-61
2023/01/28 01:34:51;;;;;;;;;5.20;5.20;;;;;2.62;85.23;101035.94;5115854;28;8815;-60
2023/01/28 01:37:19;;;;;;;;;1.80;1.00;;;;;2.62;84.67;101028.06;5115576;28;8848;-60
2023/01/28 01:39:47;;;;;;;;;0.60;0.00;;;;;2.60;85.18;101027.25;5115690;28;8836;-59
2023/01/28 01:42:15;;;;;;;;;3.00;3.00;;;;;2.59;85.17;101033.41;5115589;28;8823;-60
2023/01/28 01:44:44;;;;;;;;;0.80;0.80;;;;;2.57;84.48;101022.94;5115575;28;9421;-60
2023/01/28 01:47:11;;;;;;;;;3.80;3.00;;;;;2.58;84.73;101034.31;5115649;28;8842;-60
2023/01/28 01:49:39;;;;;;;;;3.00;1.80;;;;;2.57;84.73;101032.59;5115451;28;8836;-59
2023/01/28 01:52:07;;;;;;;;;0.20;0.20;;;;;2.55;84.93;101035.28;5115231;28;8836;-60
2023/01/28 01:54:34;;;;;;;;;3.80;3.20;;;;;2.54;84.75;101036.19;5135955;27;8810;-60
2023/01/28 01:57:02;;;;;;;;;2.60;2.60;;;;;2.54;84.72;101041.44;5134402;27;8906;-61
2023/01/28 01:59:30;;;;;;;;;3.20;3.20;;;;;2.54;85.52;101033.56;5115580;28;8846;-60
2023/01/28 02:01:58;;;;;;;;;0.00;0.00;;;;;2.53;84.96;101044.97;5115251;28;8875;-59
2023/01/28 02:04:25;;;;;;;;;3.00;1.00;;;;;2.50;85.43;101042.41;5115316;28;8816;-60
2023/01/28 02:06:55;;;;;;;;;3.00;3.00;;;;;2.50;85.29;101042.41;5114706;28;8807;-59
2023/01/28 02:09:23;;;;;;;;;1.40;1.40;;;;;2.50;84.63;101034.53;5115278;28;8897;-61
2023/01/28 02:11:51;;;;;;;;;4.00;4.00;;;;;2.49;84.93;101040.69;5115057;28;8832;-60
2023/01/28 02:14:18;;;;;;;;;4.40;4.00;;;;;2.50;84.95;101042.41;5115283;28;8816;-58
2023/01/28 02:16:57;;;;;;;;;7.00;5.20;;;;;2.50;85.26;101047.69;5115209;28;8816;-61
2023/01/28 02:19:25;;;;;;;;;3.00;3.00;;;;;2.49;84.78;101051.22;5115353;28;8824;-60
2023/01/28 02:21:53;;;;;;;;;4.40;4.00;;;;;2.48;84.82;101046.00;5115349;28;8848;-60
2023/01/28 02:24:20;;;;;;;;;0.00;0.00;;;;;2.48;84.44;101051.25;5133995;27;8845;-61
2023/01/28 02:26:48;;;;;;;;;2.60;1.80;;;;;2.47;84.90;101045.16;5138924;27;8845;-61
2023/01/28 02:29:16;;;;;;;;;3.00;3.00;;;;;2.46;85.18;101053.94;5119570;27;8812;-61
2023/01/28 02:31:44;;;;;;;;;3.00;3.00;;;;;2.46;84.55;101055.69;5118995;28;8820;-61
2023/01/28 02:34:12;;;;;;;;;1.00;1.00;;;;;2.43;85.18;101055.81;5119112;28;8839;-61
2023/01/28 02:36:39;;;;;;;;;1.00;1.00;;;;;2.41;84.66;101050.56;5118966;28;8859;-61
2023/01/28 02:39:07;;;;;;;;;4.00;4.00;;;;;2.41;84.78;101061.09;5118752;28;8816;-59
2023/01/28 02:41:34;;;;;;;;;3.80;3.20;;;;;2.40;84.98;101062.00;5118983;28;9660;-58
2023/01/28 02:44:03;;;;;;;;;1.40;1.40;;;;;2.39;84.96;101065.53;5118760;28;8854;-60
2023/01/28 02:49:15;;;;;;;;;3.20;3.20;;;;;2.37;85.00;101066.47;5118718;28;8858;-60
2023/01/28 02:51:43;;;;;;;;;4.00;4.00;;;;;2.35;84.97;101070.94;5118999;28;8840;-61
2023/01/28 02:54:10;;;;;;;;;3.00;3.00;;;;;2.35;85.00;101074.41;5135590;27;8821;-61
2023/01/28 02:56:37;;;;;;;;;1.40;1.40;;;;;2.34;84.90;101067.44;5139443;27;8826;-60
2023/01/28 02:59:29;;;;;;;;;3.00;3.00;;;;;2.31;84.44;101067.53;5120640;27;8820;-59
2023/01/28 03:01:57;;;;;;;;;3.40;2.60;;;;;2.29;85.15;101066.69;5118252;28;8820;-60
2023/01/28 03:04:25;;;;;;;;;1.00;1.00;;;;;2.27;84.97;101070.28;5118770;28;8812;-59
2023/01/28 03:06:53;;;;;;;;;4.00;1.00;;;;;2.25;84.65;101061.56;5118221;28;8843;-61
2023/01/28 03:09:25;;;;;;;;;3.40;3.00;;;;;2.23;84.74;101061.63;5118187;28;8844;-60
2023/01/28 03:36:49;;;;;;;;;2.60;1.00;;;;;2.21;84.45;101047.66;5116347;28;8836;-60
2023/01/28 03:39:17;;;;;;;;;3.60;3.00;;;;;2.22;84.48;101051.16;5116618;28;8840;-61
2023/01/28 03:41:44;;;;;;;;;3.00;3.00;;;;;2.21;84.12;101055.53;5117142;28;8820;-60
2023/01/28 03:46:58;;;;;;;;;1.80;1.00;;;;;2.18;84.23;101066.13;5117755;28;8831;-61
2023/01/28 03:49:26;;;;;;;;;2.60;2.60;;;;;2.18;84.58;101058.25;5117867;28;9458;-61
2023/01/28 03:51:53;;;;;;;;;3.80;3.80;;;;;2.17;84.09;101067.03;5117612;28;8832;-61
2023/01/28 03:54:21;;;;;;;;;4.40;4.00;;;;;2.17;84.10;101064.41;5119825;27;8820;-60
2023/01/28 03:56:48;;;;;;;;;3.00;3.00;;;;;2.17;84.51;101076.66;5117672;28;8887;-60
2023/01/28 03:59:17;;;;;;;;;3.60;3.40;;;;;2.17;84.26;101067.03;5117715;28;8824;-60
2023/01/28 04:01:44;;;;;;;;;3.60;3.60;;;;;2.17;84.85;101067.03;5117911;28;9524;-61
2023/01/28 04:04:21;;;;;;;;;1.40;1.00;;;;;2.13;83.86;101075.91;5117425;28;8904;-61
2023/01/28 04:06:49;;;;;;;;;3.00;3.00;;;;;2.09;84.38;101069.03;5117592;28;9588;-60
2023/01/28 04:09:17;;;;;;;;;1.00;1.00;;;;;2.08;84.44;101075.19;5117260;28;8847;-58
2023/01/28 04:11:45;;;;;;;;;1.40;1.00;;;;;2.09;83.72;101066.41;5117447;28;8874;-58
2023/01/28 04:14:13;;;;;;;;;5.20;4.40;;;;;2.09;83.95;101076.03;5117467;28;8835;-59
2023/01/28 04:16:40;;;;;;;;;3.20;3.20;;;;;2.08;84.23;101075.19;5117357;28;8839;-59
2023/01/28 04:19:08;;;;;;;;;0.80;0.80;;;;;2.10;83.83;101081.25;5117334;28;8897;-59
2023/01/28 04:21:36;;;;;;;;;4.40;3.40;;;;;2.09;84.18;101069.03;5117127;28;8828;-60
2023/01/28 04:24:04;;;;;;;;;0.40;0.40;;;;;2.08;83.90;101072.56;5132641;27;8813;-60
2023/01/28 04:26:31;;;;;;;;;3.00;3.00;;;;;2.07;84.30;101070.84;5136562;27;8825;-58
2023/01/28 04:28:59;;;;;;;;;1.00;1.00;;;;;2.09;84.30;101068.16;5136754;27;8861;-59
2023/01/28 04:31:27;;;;;;;;;7.40;4.00;;;;;2.10;84.00;101073.38;5122761;27;8815;-59
2023/01/28 04:33:56;;;;;;;;;3.00;3.00;;;;;2.10;83.72;101078.63;5116809;28;9566;-60
2023/01/28 04:36:24;;;;;;;;;4.00;4.00;;;;;2.10;84.03;101080.38;5117152;28;8839;-59
2023/01/28 04:38:51;;;;;;;;;6.80;6.20;;;;;2.08;84.19;101084.81;5117221;28;8812;-58
2023/01/28 04:41:19;;;;;;;;;3.60;3.60;;;;;2.07;83.90;101078.72;5117222;28;8844;-60
2023/01/28 04:43:48;;;;;;;;;4.40;4.00;;;;;2.09;84.17;101090.03;5116991;28;8824;-61
2023/01/28 04:46:16;;;;;;;;;5.20;4.00;;;;;2.09;83.73;101087.41;5117212;28;8848;-60
2023/01/28 04:48:44;;;;;;;;;6.00;6.00;;;;;2.08;83.84;101093.56;5116798;28;8835;-60
2023/01/28 04:51:11;;;;;;;;;6.60;6.60;;;;;2.08;83.71;101095.31;5116841;28;8868;-58
2023/01/28 04:53:39;;;;;;;;;4.80;4.80;;;;;2.08;83.80;101097.94;5128847;27;8880;-61
2023/01/28 04:56:07;;;;;;;;;4.40;4.00;;;;;2.06;83.64;101097.97;5137054;27;8826;-60
2023/01/28 04:58:35;;;;;;;;;3.40;3.00;;;;;2.05;84.23;101098.88;5137529;27;8813;-61
2023/01/28 05:01:02;;;;;;;;;3.40;1.80;;;;;2.04;83.98;101094.53;5137351;27;8818;-61
2023/01/28 05:03:30;;;;;;;;;3.00;3.00;;;;;2.04;83.64;101101.56;5137243;27;8922;-61
2023/01/28 05:05:58;;;;;;;;;5.80;5.00;;;;;2.01;83.76;101106.88;5137176;27;8969;-60
2023/01/28 05:08:26;;;;;;;;;5.20;3.60;;;;;2.01;84.25;101105.13;5136978;27;8818;-59
2023/01/28 05:10:54;;;;;;;;;6.80;6.80;;;;;2.01;84.15;101099.00;5137301;27;8825;-61
2023/01/28 05:13:21;;;;;;;;;6.00;5.60;;;;;2.00;83.43;101105.16;5137122;27;8841;-61
2023/01/28 05:15:49;;;;;;;;;3.00;3.00;;;;;1.99;83.51;101101.66;5137086;27;8838;-60
2023/01/28 05:18:17;;;;;;;;;4.20;3.80;;;;;1.98;83.85;101093.84;5137015;27;9553;-60
2023/01/28 05:20:45;;;;;;;;;3.00;2.20;;;;;1.95;84.23;101093.91;5137107;27;8848;-61
2023/01/28 05:23:13;;;;;;;;;6.00;6.00;;;;;1.96;84.08;101095.66;5130751;27;8829;-60
2023/01/28 05:25:40;;;;;;;;;6.00;4.00;;;;;1.94;84.17;101087.81;5135288;27;8868;-58
2023/01/28 05:28:08;;;;;;;;;6.80;5.60;;;;;1.94;83.39;101092.19;5135866;27;9495;-60
2023/01/28 05:30:36;;;;;;;;;6.60;5.20;;;;;1.94;83.52;101079.94;5135576;27;8874;-60
2023/01/28 05:33:03;;;;;;;;;5.20;4.80;;;;;1.95;83.94;101089.53;5136250;27;8837;-60
2023/01/28 05:35:31;;;;;;;;;4.00;4.00;;;;;1.95;83.98;101097.41;5135692;27;9499;-59
2023/01/28 05:37:59;;;;;;;;;1.40;1.40;;;;;1.94;83.86;101097.44;5136242;27;8837;-61
2023/01/28 05:40:27;;;;;;;;;4.80;4.40;;;;;1.94;83.93;101102.69;5135685;27;9564;-58
2023/01/28 05:42:55;;;;;;;;;2.20;2.20;;;;;1.94;83.97;101103.56;5135664;27;8845;-61
2023/01/28 05:45:22;;;;;;;;;2.60;2.60;;;;;1.96;83.27;101107.00;5135579;27;8818;-58
2023/01/28 05:47:50;;;;;;;;;3.80;1.80;;;;;1.96;83.62;101112.25;5135606;27;8858;-60
2023/01/28 05:50:18;;;;;;;;;7.00;6.20;;;;;1.95;84.11;101110.53;5135638;27;8845;-60
2023/01/28 05:52:46;;;;;;;;;2.20;1.00;;;;;1.93;84.00;101116.72;5130457;27;8825;-58
2023/01/28 05:55:13;;;;;;;;;4.00;4.00;;;;;1.90;83.77;101117.66;5136468;27;8868;-59
2023/01/28 05:57:43;;;;;;;;;2.20;2.20;;;;;1.86;83.58;101117.78;5136532;27;8832;-59
2023/01/28 06:00:11;;;;;;;;;4.80;4.00;;;;;1.83;83.09;101118.72;5137318;27;8863;-58
2023/01/28 06:02:40;;;;;;;;;5.80;5.20;;;;;1.81;83.80;101125.78;5140634;27;8837;-60
2023/01/28 06:05:07;;;;;;;;;5.80;4.60;;;;;1.81;83.91;101130.19;5140629;27;8821;-59
2023/01/28 06:07:35;;;;;;;;;3.00;1.40;;;;;1.79;83.73;101127.59;5140489;27;8828;-61
2023/01/28 06:10:03;;;;;;;;;7.40;6.00;;;;;1.78;83.31;101122.38;5140473;27;8829;-58
2023/01/28 06:12:31;;;;;;;;;7.20;5.40;;;;;1.79;83.60;101124.97;5140157;27;8865;-58
2023/01/28 06:14:58;;;;;;;;;1.00;1.00;;;;;1.80;83.41;101117.94;5140353;27;8831;-60
2023/01/28 06:17:26;;;;;;;;;6.60;5.60;;;;;1.80;83.82;101115.31;5140390;27;8898;-58
2023/01/28 06:19:54;;;;;;;;;3.60;3.60;;;;;1.80;83.63;101126.69;5140238;27;8841;-60
2023/01/28 06:22:21;;;;;;;;;3.80;3.80;;;;;1.79;83.32;101124.97;5134702;27;8879;-60
2023/01/28 06:24:49;;;;;;;;;3.00;1.80;;;;;1.78;83.57;101122.38;5140274;27;8842;-59
2023/01/28 06:27:17;;;;;;;;;6.00;4.80;;;;;1.77;83.14;101134.66;5125462;27;8819;-59
2023/01/28 06:29:44;;;;;;;;;3.60;2.60;;;;;1.76;84.07;101122.41;5118983;28;8843;-61
2023/01/28 06:32:12;;;;;;;;;1.80;1.80;;;;;1.77;83.33;101129.41;5119327;28;8824;-59
2023/01/28 06:34:40;;;;;;;;;2.00;1.40;;;;;1.77;83.69;101131.16;5119116;28;8870;-59
2023/01/28 06:37:08;;;;;;;;;1.80;1.00;;;;;1.76;83.22;101125.03;5119045;28;8852;-58
2023/01/28 06:39:36;;;;;;;;;1.40;1.40;;;;;1.76;83.79;101125.03;5118182;28;8835;-60
2023/01/28 06:42:04;;;;;;;;;3.00;3.00;;;;;1.78;84.04;101122.38;5118124;28;8816;-58
2023/01/28 06:44:31;;;;;;;;;1.00;1.00;;;;;1.75;83.36;101131.19;5118269;28;8831;-58
2023/01/28 06:46:59;;;;;;;;;4.00;4.00;;;;;1.76;83.21;101130.28;5118100;28;8832;-60
2023/01/28 06:49:28;;;;;;;;;2.60;1.80;;;;;1.76;83.46;101132.91;5118834;28;8838;-60
2023/01/28 06:51:55;;;;;;;;;4.00;4.00;;;;;1.78;83.61;101122.38;5117629;28;8824;-58
2023/01/28 06:54:23;;;;;;;;;3.80;3.00;;;;;1.77;83.53;101125.91;5136378;27;8814;-59
2023/01/28 06:56:50;;;;;;;;;3.00;3.00;;;;;1.77;83.38;101134.66;5138153;27;8818;-58
2023/01/28 06:59:18;;;;;;;;;6.00;6.00;;;;;1.77;83.51;101128.53;5137843;27;8860;-60
2023/01/28 07:01:46;;;;;;;;;3.20;2.20;;;;;1.76;83.36;101132.06;5139089;27;8826;-61
2023/01/28 07:04:14;;;;;;;;;3.80;3.40;;;;;1.74;83.36;101128.63;5138648;27;8813;-59
2023/01/28 07:06:41;;;;;;;;;3.80;3.80;;;;;1.72;83.27;101130.41;5138684;27;8845;-58
2023/01/28 07:09:10;;;;;;;;;5.20;4.00;;;;;1.70;83.33;101119.97;5139078;27;8906;-60
2023/01/28 07:11:38;;;;;;;;;6.00;4.00;;;;;1.70;83.62;101129.59;5138103;27;8840;-58
2023/01/28 07:14:06;;;;;;;;;4.20;3.40;;;;;1.70;83.69;101130.47;5137484;27;8825;-58
2023/01/28 07:16:34;;;;;;;;;1.40;1.00;;;;;1.68;83.71;101119.09;5138059;27;9522;-59
2023/01/28 07:19:01;;;;;;;;;3.60;3.40;;;;;1.68;83.12;101120.88;5137699;27;8868;-60
2023/01/28 07:21:29;;;;;;;;;4.80;3.40;;;;;1.66;83.26;101120.91;5130725;27;8832;-59
2023/01/28 07:23:56;;;;;;;;;6.40;5.20;;;;;1.67;83.69;101116.53;5131997;27;8813;-61
2023/01/28 07:26:25;;;;;;;;;6.20;2.60;;;;;1.66;83.98;101110.41;5138031;27;8859;-60
2023/01/28 07:28:53;;;;;;;;;3.40;3.00;;;;;1.68;83.68;101118.25;5137106;27;8846;-59
2023/01/28 07:31:21;;;;;;;;;6.80;6.40;;;;;1.68;83.63;101119.09;5137830;27;8833;-59
2023/01/28 07:33:48;;;;;;;;;6.00;4.40;;;;;1.68;83.19;101120.88;5138127;27;8949;-58
2023/01/28 07:36:16;;;;;;;;;4.80;3.60;;;;;1.66;83.53;101122.69;5138006;27;8809;-60
2023/01/28 07:38:44;;;;;;;;;6.00;6.00;;;;;1.68;83.33;101121.72;5138165;27;8818;-58
2023/01/28 07:41:12;;;;;;;;;5.60;5.60;;;;;1.69;83.40;101128.75;5138081;27;8821;-60
2023/01/28 07:43:39;;;;;;;;;2.60;1.00;;;;;1.69;83.41;101122.63;5137851;27;8830;-60
2023/01/28 07:46:07;;;;;;;;;3.80;3.80;;;;;1.70;83.55;101114.72;5138211;27;9495;-58
2023/01/28 07:48:35;;;;;;;;;4.00;4.00;;;;;1.69;83.83;101123.50;5137863;27;8878;-60
2023/01/28 07:51:03;;;;;;;;;6.60;5.20;;;;;1.70;83.15;101125.22;5134533;27;9021;-61
2023/01/28 07:53:31;;;;;;;;;1.00;1.00;;;;;1.71;83.25;101126.94;5127520;27;8877;-58
2023/01/28 07:55:59;;;;;;;;;3.80;3.80;;;;;1.73;83.77;101130.38;5136130;27;8837;-59
2023/01/28 07:58:27;;;;;;;;;6.00;6.00;;;;;1.76;83.49;101135.53;5136352;27;8960;-60
2023/01/28 08:00:54;;;;;;;;;4.00;4.00;;;;;1.78;82.93;101133.75;5136717;27;8832;-59
2023/01/28 08:03:23;;;;;;;;;5.20;2.60;;;;;1.78;82.87;101144.25;5137076;27;8849;-59
2023/01/28 08:05:50;;;;;;;;;0.80;0.80;;;;;1.80;83.21;101146.81;5137046;27;8838;-58
2023/01/28 08:08:18;;;;;;;;;6.60;5.40;;;;;1.81;82.72;101152.03;5137195;27;8852;-58
2023/01/28 08:10:46;;;;;;;;;1.00;0.00;;;;;1.84;82.60;101144.09;5137645;27;8830;-60
2023/01/28 08:13:13;;;;;;;;;5.60;5.60;;;;;1.84;82.94;101143.22;5137497;27;8844;-58
2023/01/28 08:15:42;;;;;;;;;4.00;3.40;;;;;1.84;83.02;101149.34;5137286;27;9530;-59
2023/01/28 08:18:11;;;;;;;;;3.40;3.40;;;;;1.86;82.53;101144.91;5136547;27;8829;-59
2023/01/28 08:20:39;;;;;;;;;3.20;3.20;;;;;1.89;83.09;101163.22;5136411;27;8845;-58
2023/01/28 08:23:07;;;;;;;;;1.00;1.00;;;;;1.91;82.66;101157.94;5122978;27;8809;-59
2023/01/28 08:25:35;;;;;;;;;3.00;3.00;;;;;1.94;83.12;101169.22;5135992;27;8822;-59
2023/01/28 08:28:03;;;;;;;;;4.00;3.00;;;;;1.97;82.40;101177.00;5126105;27;8827;-58
2023/01/28 08:30:30;;;;;;;;;5.00;4.20;;;;;2.00;82.81;101182.22;5115289;28;8824;-59
2023/01/28 08:32:58;;;;;;;;;5.40;4.80;;;;;2.03;82.50;101179.50;5115593;28;8828;-60
2023/01/28 08:35:27;;;;;;;;;9.20;7.80;;;;;2.04;82.71;101186.47;5115747;28;8855;-60
2023/01/28 08:37:54;;;;;;;;;1.00;0.60;;;;;2.03;81.80;101182.13;5116100;28;8839;-60
2023/01/28 08:40:23;;;;;;;;;5.80;4.00;;;;;2.05;82.19;101184.72;5115641;28;8828;-60
2023/01/28 08:42:51;;;;;;;;;5.80;5.00;;;;;2.06;83.03;101175.94;5115944;28;8838;-60
2023/01/28 08:45:18;;;;;;;;;4.40;4.40;;;;;2.07;82.32;101189.03;5115783;28;8978;-60
2023/01/28 08:47:46;;;;;;;;;6.20;5.60;;;;;2.11;82.62;101192.44;5115416;28;8823;-58
2023/01/28 08:50:14;;;;;;;;;3.00;3.00;;;;;2.12;82.29;101197.63;5114806;28;8967;-60
2023/01/28 08:52:43;;;;;;;;;4.20;3.60;;;;;2.14;82.33;101195.81;5118887;27;8825;-58
2023/01/28 08:55:11;;;;;;;;;4.00;3.00;;;;;2.19;81.92;101208.88;5134950;27;8930;-61
2023/01/28 08:57:39;;;;;;;;;3.40;3.40;;;;;2.22;81.72;101214.91;5134734;27;8940;-60
2023/01/28 09:00:07;;;;;;;;;4.40;4.40;;;;;2.21;82.04;101221.03;5134783;27;8883;-60
2023/01/28 09:02:34;;;;;;;;;1.40;1.40;;;;;2.21;81.82;101218.41;5135166;27;8911;-59
2023/01/28 09:05:03;;;;;;;;;3.00;2.60;;;;;2.21;82.25;101228.91;5135164;27;9540;-58
2023/01/28 09:07:31;;;;;;;;;3.80;3.80;;;;;2.21;82.20;101226.28;5126855;27;8808;-60
2023/01/28 09:09:59;;;;;;;;;3.20;3.00;;;;;2.22;81.95;101235.94;5114444;28;8835;-59
2023/01/28 09:12:26;;;;;;;;;4.00;2.80;;;;;2.23;82.43;101248.16;5114149;28;8840;-60
2023/01/28 09:14:54;;;;;;;;;6.00;5.60;;;;;2.20;82.17;101232.44;5114076;28;9844;-61
2023/01/28 09:17:22;;;;;;;;;4.00;3.80;;;;;2.20;81.60;101242.13;5114486;28;8901;-59
2023/01/28 09:19:50;;;;;;;;;3.00;2.20;;;;;2.22;81.81;101243.81;5114708;28;8951;-59
2023/01/28 09:22:18;;;;;;;;;3.40;3.40;;;;;2.24;81.45;101249.00;5115293;27;8890;-60
2023/01/28 09:24:46;;;;;;;;;3.40;3.00;;;;;2.26;81.82;101249.84;5135243;27;8821;-61
2023/01/28 09:27:14;;;;;;;;;3.80;3.20;;;;;2.26;81.74;101253.31;5134636;27;8837;-57
2023/01/28 09:29:42;;;;;;;;;5.60;5.60;;;;;2.26;81.81;101241.97;5134513;27;8849;-61
2023/01/28 09:32:10;;;;;;;;;4.00;4.00;;;;;2.26;81.86;101250.69;5134114;27;8842;-59
2023/01/28 09:34:38;;;;;;;;;5.60;5.60;;;;;2.23;81.05;101256.03;5134174;27;8841;-59
2023/01/28 09:37:06;;;;;;;;;3.60;3.60;;;;;2.21;81.64;101257.81;5130850;28;8832;-60
2023/01/28 09:39:34;;;;;;;;;4.80;4.00;;;;;2.18;81.15;101254.41;5113752;28;8844;-57
2023/01/28 09:42:04;;;;;;;;;5.60;4.40;;;;;2.19;81.12;101256.16;5113904;28;8864;-59
2023/01/28 09:44:32;;;;;;;;;5.20;3.80;;;;;2.22;81.35;101251.69;5114112;28;8827;-61
2023/01/28 09:47:00;;;;;;;;;4.00;4.00;;;;;2.27;81.72;101262.94;5114840;28;8824;-61
2023/01/28 09:49:28;;;;;;;;;3.20;3.00;;;;;2.29;81.68;101276.88;5114605;28;8836;-58
2023/01/28 09:51:56;;;;;;;;;3.60;3.60;;;;;2.30;80.93;101268.13;5114811;28;8977;-60
2023/01/28 09:54:24;;;;;;;;;4.80;4.80;;;;;2.29;81.25;101276.03;5127497;28;8827;-59
2023/01/28 09:56:52;;;;;;;;;4.00;3.00;;;;;2.26;80.95;101268.25;5114047;28;8820;-60
2023/01/28 09:59:20;;;;;;;;;3.20;2.20;;;;;2.21;81.43;101275.38;5114188;28;9623;-59
2023/01/28 10:01:48;;;;;;;;;1.40;1.00;;;;;2.18;81.28;101275.41;5114118;28;8905;-61
2023/01/28 10:04:16;;;;;;;;;3.40;3.40;;;;;2.16;81.21;101267.59;5113161;28;8844;-59
2023/01/28 10:06:44;;;;;;;;;4.00;4.00;;;;;2.17;81.48;101276.31;5113813;28;8843;-61
2023/01/28 10:09:12;;;;;;;;;4.80;4.80;;;;;2.20;81.70;101271.00;5113319;28;8832;-61
2023/01/28 10:11:40;;;;;;;;;4.00;3.80;;;;;2.22;81.31;101277.97;5113635;28;8835;-60
2023/01/28 10:14:08;;;;;;;;;0.80;0.20;;;;;2.24;81.21;101273.53;5113456;28;8831;-60
2023/01/28 10:16:36;;;;;;;;;4.40;4.00;;;;;2.27;81.37;101273.44;5113591;28;8904;-61
2023/01/28 10:19:04;;;;;;;;;1.80;1.80;;;;;2.29;81.04;101268.16;5113784;28;8835;-60
2023/01/28 10:21:32;;;;;;;;;3.80;3.80;;;;;2.30;81.25;101268.13;5113334;28;9750;-60
2023/01/28 10:24:00;;;;;;;;;4.00;4.00;;;;;2.34;81.51;101266.28;5128336;27;8826;-61
2023/01/28 10:26:28;;;;;;;;;2.60;2.60;;;;;2.36;80.50;101253.97;5133228;27;8845;-60
2023/01/28 10:28:56;;;;;;;;;6.00;4.40;;;;;2.43;81.04;101252.91;5133016;27;9538;-61
2023/01/28 10:31:25;;;;;;;;;5.60;5.60;;;;;2.49;80.52;101252.75;5132888;27;8925;-61
2023/01/28 10:33:53;;;;;;;;;3.20;3.20;;;;;2.55;81.17;101245.56;5132844;27;8964;-60
2023/01/28 10:36:20;;;;;;;;;3.00;2.60;;;;;2.60;80.20;101240.19;5132702;27;8845;-59
2023/01/28 10:38:48;;;;;;;;;3.00;2.60;;;;;2.64;80.62;101240.06;5130421;27;9626;-60
2023/01/28 10:41:16;;;;;;;;;6.00;4.00;;;;;2.69;80.50;101238.16;5112607;28;8911;-61
2023/01/28 10:43:45;;;;;;;;;3.80;3.80;;;;;2.73;80.14;101233.69;5112895;28;8908;-61
2023/01/28 10:46:13;;;;;;;;;5.20;5.20;;;;;2.76;79.79;101241.47;5113503;28;8974;-61
2023/01/28 10:48:41;;;;;;;;;8.60;8.60;;;;;2.79;79.79;101250.16;5117082;28;8850;-61
2023/01/28 10:51:09;;;;;;;;;0.80;0.80;;;;;2.81;79.71;101247.50;5116973;28;8855;-60
2023/01/28 10:53:37;;;;;;;;;6.20;4.40;;;;;2.82;80.18;101252.72;5129069;27;8918;-60
2023/01/28 10:56:06;;;;;;;;;5.20;5.20;;;;;2.82;80.15;101246.59;5137349;27;8818;-60
2023/01/28 10:58:34;;;;;;;;;1.80;1.40;;;;;2.78;79.99;101239.66;5136274;27;8856;-60
2023/01/28 11:01:02;;;;;;;;;4.20;3.40;;;;;2.76;79.60;101242.38;5136568;27;8903;-60
2023/01/28 11:03:30;;;;;;;;;4.40;3.40;;;;;2.75;79.71;101256.41;5136935;27;8838;-60
2023/01/28 11:05:58;;;;;;;;;4.00;1.40;;;;;2.74;79.83;101252.03;5136615;27;8911;-61
2023/01/28 11:08:27;;;;;;;;;4.80;4.80;;;;;2.76;79.45;101252.88;5136920;27;8841;-59
2023/01/28 11:10:59;;;;;;;;;5.80;3.60;;;;;2.76;79.33;101249.38;5116941;27;8820;-60
2023/01/28 11:13:27;;;;;;;;;3.00;3.00;;;;;2.79;79.70;101259.81;5095245;28;8827;-60
2023/01/28 11:15:55;;;;;;;;;3.60;3.00;;;;;2.83;79.82;101264.97;5094387;28;8844;-59
2023/01/28 11:18:23;;;;;;;;;4.40;4.00;;;;;2.87;79.54;101258.69;5094181;28;8833;-60
2023/01/28 11:20:52;;;;;;;;;6.00;4.00;;;;;2.86;79.60;101263.97;5115135;28;8870;-59
2023/01/28 11:23:20;;;;;;;;;3.00;3.00;;;;;2.85;79.99;101260.50;5122819;27;8917;-61
2023/01/28 11:25:48;;;;;;;;;3.00;1.40;;;;;2.84;79.75;101269.31;5115230;28;8831;-61
2023/01/28 11:28:16;;;;;;;;;3.00;3.00;;;;;2.85;79.66;101268.41;5115158;28;8840;-58
2023/01/28 11:30:44;;;;;;;;;4.00;3.80;;;;;2.85;79.41;101278.03;5114973;28;8909;-61
2023/01/28 11:33:13;;;;;;;;;3.80;3.80;;;;;2.84;79.88;101285.09;5114956;28;8836;-62
2023/01/28 11:35:41;;;;;;;;;1.80;1.80;;;;;2.84;80.08;101268.44;5115526;28;8831;-61
2023/01/28 11:38:09;;;;;;;;;4.00;3.00;;;;;2.83;79.31;101274.59;5114721;28;8851;-59
2023/01/28 11:40:37;;;;;;;;;3.60;1.00;;;;;2.83;79.74;101267.59;5113651;28;8930;-60
2023/01/28 11:43:05;;;;;;;;;3.00;1.40;;;;;2.81;79.59;101260.66;5113688;28;8873;-60
2023/01/28 11:45:33;;;;;;;;;3.00;3.00;;;;;2.77;79.50;101272.13;5114489;28;8860;-59
2023/01/28 11:48:01;;;;;;;;;3.60;3.60;;;;;2.71;79.83;101267.03;5114465;28;9853;-59
2023/01/28 11:50:29;;;;;;;;;5.60;5.60;;;;;2.67;79.94;101262.78;5114409;28;8860;-59
2023/01/28 11:52:57;;;;;;;;;5.20;3.20;;;;;2.68;79.84;101260.13;5121064;27;8845;-59
2023/01/28 11:55:34;;;;;;;;;3.00;3.00;;;;;2.72;79.78;101266.16;5114884;27;8978;-60
2023/01/28 11:58:03;;;;;;;;;1.40;1.40;;;;;2.74;79.50;101264.34;5113889;28;8830;-57
2023/01/28 12:00:31;;;;;;;;;2.80;2.20;;;;;2.73;79.48;101265.25;5114504;28;8835;-58
2023/01/28 12:02:59;;;;;;;;;3.20;3.20;;;;;2.70;79.12;101255.66;5114356;28;8850;-60
2023/01/28 12:05:27;;;;;;;;;3.40;3.20;;;;;2.70;79.33;101250.41;5113532;28;8831;-61
2023/01/28 12:07:56;;;;;;;;;3.00;3.00;;;;;2.72;79.55;101247.75;5113665;28;8840;-61
2023/01/28 12:10:24;;;;;;;;;1.80;1.00;;;;;2.74;79.20;101238.03;5114174;28;8820;-58
2023/01/28 12:12:51;;;;;;;;;1.00;1.00;;;;;2.79;79.07;101239.63;5114790;28;9509;-60
2023/01/28 12:15:20;;;;;;;;;5.60;4.00;;;;;2.84;79.59;101243.00;5114715;28;8851;-59